Arkdale, WI

9:29 AM CDT on June 30, 2015 (GMT -0500)
Necedah Township | | Change Station
CLOSE
Current Station
Personal Weather Station
Location: Necedah, WI
Elevation: 890 ft
Nearby Weather Stations

Elev 890 ft 44.00 °N, 89.99 °W | Updated 7 seconds ago

Overcast
Overcast
66.6 °F
Feels Like 66.6 °F
N
0.0
Wind Variable Wind from NW
Gusts 2.8 mph

Today
High -- | Low -- °F
--% Chance of Precip.
Yesterday
High -- | Low -- °F
Precip. -- in
5:19 AM 8:46 PM
Waxing Gibbous, 97% visible
Pressure 29.87 in
Visibility 0.5 miles
Clouds
Dew Point 67 °F
Humidity 100%
Rainfall in
Snow Depth Not available.
UV Not available.
Pollen 3.70 out of 12
Air Quality Not available.
Flu Activity Sporadic
METAR KVOK 301158Z 32005KT 1/2SM BR VV002 14/14 A2986 RMK AO2A SLP114 70005 52019

More Conditions Fewer Conditions

Pressure 29.87 in
Visibility 0.5 miles
Clouds
Dew Point 67 °F
Humidity 100%
Rainfall in
Snow Depth Not available.
UV Not available.
Pollen 3.70 out of 12
Air Quality Not available.
Flu Activity Sporadic
METAR KVOK 301158Z 32005KT 1/2SM BR VV002 14/14 A2986 RMK AO2A SLP114 70005 52019

More Conditions Fewer Conditions

10-Day Weather Forecast

×

Almanac

Astronomy

Jun. 30, 2015 Rise Set
Actual Time
Civil Twilight
Nautical Twilight
Astronomical Twilight
Moon
Length of Visible Light
Length of Day
Tomorrow will be .
, % of the Moon is Illuminated

Today's Extremes

State Highs State Lows

Community

WunderPhotos

Upload Photos

1,834,008 photos uploaded!

WunderBlogs® & News

Nearby

Air Quality

  Air Quality AQ Index Pollutant
Not available.

Snow Depth

Station Depth Elevation

Earthquake Activity

City Distance Mag. Time & Date
Minimum magnitude displayed is 2.5.

Coastal Water Temperatures

Place Temperature

Stations

Nearby Weather Stations

Station Location Temp. Windchill Dew Point Humidity Wind Precip. Elev Updated Type